Time;durP1;ratioP1;P1;durP2;ratioP2;P2;SDS_P1;SDS_P2;PMS_P1;PMS_P2;Temp;Humidity;BMP_temperature;BMP_pressure;BME280_temperature;BME280_humidity;BME280_pressure;Samples;Min_cycle;Max_cycle;Signal;HPM_P1;HPM_P2
2023/09/12 00:00:34;;;;;;;63.85;34.17;;;;;;;;;;5008738;28;99051;-69
2023/09/12 00:03:01;;;;;;;57.53;33.33;;;;;;;;;;5007112;28;98516;-71
2023/09/12 00:05:27;;;;;;;66.72;34.63;;;;;;;;;;5006461;28;99358;-70
2023/09/12 00:07:54;;;;;;;76.65;35.42;;;;;;;;;;5006370;28;99542;-70
2023/09/12 00:10:20;;;;;;;79.40;36.03;;;;;;;;;;5004956;28;98486;-69
2023/09/12 00:12:47;;;;;;;80.57;36.28;;;;;;;;;;5006112;28;100074;-69
2023/09/12 00:15:13;;;;;;;79.60;36.47;;;;;;;;;;5006273;28;99976;-69
2023/09/12 00:17:40;;;;;;;74.07;34.70;;;;;;;;;;5005599;28;98300;-68
2023/09/12 00:20:08;;;;;;;73.78;35.88;;;;;;;;;;5010028;28;99125;-68
2023/09/12 00:22:37;;;;;;;74.90;36.30;;;;;;;;;;5005599;28;98311;-68
2023/09/12 00:25:03;;;;;;;63.85;33.30;;;;;;;;;;5005740;28;98889;-70
2023/09/12 00:27:30;;;;;;;70.35;33.17;;;;;;;;;;5006295;28;99878;-69
2023/09/12 00:29:56;;;;;;;69.63;34.47;;;;;;;;;;5006376;28;98379;-70
2023/09/12 00:32:23;;;;;;;63.75;33.20;;;;;;;;;;5004154;28;100513;-70
2023/09/12 00:34:49;;;;;;;66.40;33.25;;;;;;;;;;5005363;28;99829;-69
2023/09/12 00:37:15;;;;;;;61.75;34.38;;;;;;;;;;5006171;28;98207;-69
2023/09/12 00:39:42;;;;;;;60.55;32.63;;;;;;;;;;5005629;28;99327;-69
2023/09/12 00:42:08;;;;;;;67.32;32.60;;;;;;;;;;5008666;28;99097;-69
2023/09/12 00:44:35;;;;;;;62.13;32.97;;;;;;;;;;5004630;28;99768;-70
2023/09/12 00:47:02;;;;;;;62.38;32.80;;;;;;;;;;5004971;28;99126;-70
2023/09/12 00:49:29;;;;;;;64.72;34.65;;;;;;;;;;5007155;28;98610;-69
2023/09/12 00:51:56;;;;;;;59.58;31.27;;;;;;;;;;5010023;28;98288;-70
2023/09/12 00:54:24;;;;;;;66.47;33.50;;;;;;;;;;5007656;28;101404;-69
2023/09/12 00:56:51;;;;;;;66.45;33.70;;;;;;;;;;5008279;28;98218;-71
2023/09/12 00:59:18;;;;;;;66.50;34.67;;;;;;;;;;5007217;28;99925;-69
2023/09/12 01:01:44;;;;;;;67.68;33.55;;;;;;;;;;5009549;28;98782;-69
2023/09/12 01:04:11;;;;;;;63.40;34.33;;;;;;;;;;5011562;28;98388;-69
2023/09/12 01:06:53;;;;;;;62.47;33.33;;;;;;;;;;5008710;28;98870;-69
2023/09/12 01:09:20;;;;;;;59.67;32.88;;;;;;;;;;5009317;28;98320;-70
2023/09/12 01:11:46;;;;;;;56.60;31.90;;;;;;;;;;5008926;28;98419;-70
2023/09/12 01:14:13;;;;;;;70.25;34.28;;;;;;;;;;5008204;28;98842;-71
2023/09/12 01:16:39;;;;;;;67.43;34.60;;;;;;;;;;5009032;28;98253;-71
2023/09/12 01:19:06;;;;;;;62.97;31.30;;;;;;;;;;5009566;28;99808;-70
2023/09/12 01:21:51;;;;;;;62.88;32.88;;;;;;;;;;5008674;28;98979;-70
2023/09/12 01:24:21;;;;;;;60.55;30.98;;;;;;;;;;5006751;28;98277;-69
2023/09/12 01:26:52;;;;;;;63.08;29.40;;;;;;;;;;5012186;28;99716;-69
2023/09/12 01:29:20;;;;;;;51.67;30.25;;;;;;;;;;5008357;28;98148;-69
2023/09/12 01:31:47;;;;;;;52.13;28.75;;;;;;;;;;5008766;28;98467;-69
2023/09/12 01:34:14;;;;;;;55.78;29.40;;;;;;;;;;5007893;28;98948;-69
2023/09/12 01:36:40;;;;;;;47.33;27.65;;;;;;;;;;5008602;28;98610;-70
2023/09/12 01:39:07;;;;;;;47.20;28.13;;;;;;;;;;5003918;28;98505;-69
2023/09/12 01:41:35;;;;;;;45.53;27.23;;;;;;;;;;5007522;28;98867;-69
2023/09/12 01:44:02;;;;;;;52.20;27.23;;;;;;;;;;5008785;28;98236;-69
2023/09/12 01:46:29;;;;;;;43.45;25.33;;;;;;;;;;5009654;28;100910;-69
2023/09/12 01:48:56;;;;;;;50.00;27.40;;;;;;;;;;5005503;28;98795;-70
2023/09/12 01:51:23;;;;;;;45.78;26.77;;;;;;;;;;5008298;28;98254;-69
2023/09/12 01:53:50;;;;;;;45.22;26.88;;;;;;;;;;5006191;28;100800;-69
2023/09/12 01:56:17;;;;;;;48.45;27.63;;;;;;;;;;5006046;28;99261;-71
2023/09/12 01:58:44;;;;;;;43.95;24.70;;;;;;;;;;5009682;28;101187;-69
2023/09/12 02:01:11;;;;;;;49.70;27.15;;;;;;;;;;5008425;28;103104;-69
2023/09/12 02:03:37;;;;;;;53.63;29.30;;;;;;;;;;5007976;28;98515;-69
2023/09/12 02:06:04;;;;;;;48.45;28.30;;;;;;;;;;5008715;28;100458;-69
2023/09/12 02:08:30;;;;;;;51.17;29.20;;;;;;;;;;5010002;28;98339;-69
2023/09/12 02:10:57;;;;;;;55.95;29.98;;;;;;;;;;5008195;28;98587;-70
2023/09/12 02:13:23;;;;;;;54.75;30.42;;;;;;;;;;5005123;28;99753;-69
2023/09/12 02:15:50;;;;;;;61.83;32.22;;;;;;;;;;5008342;28;98704;-69
2023/09/12 02:18:16;;;;;;;56.80;30.67;;;;;;;;;;5004987;28;100209;-68
2023/09/12 02:20:46;;;;;;;64.35;33.30;;;;;;;;;;5006176;28;100941;-69
2023/09/12 02:23:12;;;;;;;55.20;31.17;;;;;;;;;;5008005;28;98215;-70
2023/09/12 02:25:39;;;;;;;52.33;31.02;;;;;;;;;;5007496;28;98359;-70
2023/09/12 02:28:05;;;;;;;62.50;30.20;;;;;;;;;;5006175;28;101771;-69
2023/09/12 02:30:32;;;;;;;65.68;31.88;;;;;;;;;;5010909;28;99692;-69
2023/09/12 02:32:58;;;;;;;56.38;31.00;;;;;;;;;;5007520;28;100307;-69
2023/09/12 02:35:27;;;;;;;52.78;29.90;;;;;;;;;;5008137;28;99681;-69
2023/09/12 02:37:53;;;;;;;59.03;30.52;;;;;;;;;;5004353;28;98735;-69
2023/09/12 02:40:20;;;;;;;49.13;29.70;;;;;;;;;;5006242;28;99599;-70
2023/09/12 02:42:46;;;;;;;51.85;30.60;;;;;;;;;;5006552;28;98884;-69
2023/09/12 02:45:13;;;;;;;55.30;31.10;;;;;;;;;;5007209;28;98425;-69
2023/09/12 02:47:39;;;;;;;59.58;31.48;;;;;;;;;;5005790;28;100953;-69
2023/09/12 02:50:06;;;;;;;58.17;30.08;;;;;;;;;;5006220;28;98151;-70
2023/09/12 02:52:33;;;;;;;50.30;29.55;;;;;;;;;;5008754;28;100397;-70
2023/09/12 02:55:00;;;;;;;94.80;32.92;;;;;;;;;;5008763;28;98748;-69
2023/09/12 02:57:27;;;;;;;64.63;30.67;;;;;;;;;;5009266;28;99455;-70
2023/09/12 02:59:53;;;;;;;62.63;30.00;;;;;;;;;;5007990;28;100803;-70
2023/09/12 03:02:19;;;;;;;75.93;30.85;;;;;;;;;;5005599;28;98956;-70
2023/09/12 03:04:46;;;;;;;75.95;30.25;;;;;;;;;;5007909;28;98706;-69
2023/09/12 03:07:13;;;;;;;56.75;29.05;;;;;;;;;;5004452;28;100568;-70
2023/09/12 03:09:39;;;;;;;71.70;30.13;;;;;;;;;;5007730;28;98758;-70
2023/09/12 03:12:06;;;;;;;65.22;28.23;;;;;;;;;;5005942;28;98441;-69
2023/09/12 03:14:34;;;;;;;67.68;30.52;;;;;;;;;;5008136;28;101430;-70
2023/09/12 03:17:02;;;;;;;50.30;29.90;;;;;;;;;;5006964;28;98891;-69
2023/09/12 03:19:30;;;;;;;52.85;29.00;;;;;;;;;;5005727;28;102095;-70
2023/09/12 03:21:56;;;;;;;49.22;28.92;;;;;;;;;;5004983;28;98268;-71
2023/09/12 03:24:24;;;;;;;46.47;29.33;;;;;;;;;;5005489;28;99506;-70
2023/09/12 03:26:51;;;;;;;57.22;31.63;;;;;;;;;;5003314;28;101422;-70
2023/09/12 03:29:20;;;;;;;54.50;29.10;;;;;;;;;;5005112;28;98325;-70
2023/09/12 03:31:47;;;;;;;53.67;31.02;;;;;;;;;;5005517;28;99513;-70
2023/09/12 03:34:14;;;;;;;50.10;29.63;;;;;;;;;;5004130;28;100017;-70
2023/09/12 03:36:40;;;;;;;44.20;29.02;;;;;;;;;;5008720;28;100023;-69
2023/09/12 03:39:08;;;;;;;41.85;27.85;;;;;;;;;;5006588;28;98931;-70
2023/09/12 03:41:37;;;;;;;45.92;27.40;;;;;;;;;;5004198;28;98488;-68
2023/09/12 03:44:03;;;;;;;49.35;29.27;;;;;;;;;;5007513;28;98496;-69
2023/09/12 03:46:30;;;;;;;46.28;28.10;;;;;;;;;;5006054;28;100499;-70
2023/09/12 03:48:56;;;;;;;43.42;27.13;;;;;;;;;;5006225;28;98350;-70
2023/09/12 03:51:23;;;;;;;46.42;26.45;;;;;;;;;;5005053;28;98264;-71
2023/09/12 03:53:49;;;;;;;42.85;26.13;;;;;;;;;;5004991;28;100892;-70
2023/09/12 03:56:19;;;;;;;53.22;28.60;;;;;;;;;;5007995;28;98454;-69
2023/09/12 03:58:46;;;;;;;46.50;27.98;;;;;;;;;;5005951;28;100225;-70
2023/09/12 04:01:13;;;;;;;42.30;26.15;;;;;;;;;;5005267;28;98299;-70
2023/09/12 04:03:39;;;;;;;42.95;27.50;;;;;;;;;;5004451;28;101095;-70
2023/09/12 04:06:09;;;;;;;42.80;26.50;;;;;;;;;;5004915;28;101475;-70
2023/09/12 04:08:36;;;;;;;41.50;26.05;;;;;;;;;;5004889;28;98966;-70
2023/09/12 04:11:03;;;;;;;41.95;27.17;;;;;;;;;;5005404;28;99791;-69
2023/09/12 04:13:30;;;;;;;39.83;25.17;;;;;;;;;;5006133;28;99110;-70
2023/09/12 04:15:56;;;;;;;43.90;25.45;;;;;;;;;;4995794;28;98183;-69
2023/09/12 04:18:23;;;;;;;41.15;25.60;;;;;;;;;;5007623;28;101046;-70
2023/09/12 04:20:50;;;;;;;41.35;26.02;;;;;;;;;;5005256;28;98938;-70
2023/09/12 04:23:17;;;;;;;49.72;27.75;;;;;;;;;;5004044;28;98766;-69
2023/09/12 04:25:45;;;;;;;50.22;27.63;;;;;;;;;;5007754;28;98152;-70
2023/09/12 04:28:12;;;;;;;51.80;29.63;;;;;;;;;;5008831;28;99197;-69
2023/09/12 04:30:39;;;;;;;57.50;30.98;;;;;;;;;;5006815;28;98831;-69
2023/09/12 04:33:06;;;;;;;49.22;29.17;;;;;;;;;;5020323;28;99874;-69
2023/09/12 04:35:33;;;;;;;46.58;26.83;;;;;;;;;;5003047;28;98265;-70
2023/09/12 04:38:02;;;;;;;46.38;27.58;;;;;;;;;;5007245;28;101365;-69
2023/09/12 04:40:29;;;;;;;48.15;27.17;;;;;;;;;;5010338;28;101636;-71
2023/09/12 04:42:56;;;;;;;40.60;25.63;;;;;;;;;;5007828;28;100396;-71
2023/09/12 04:45:22;;;;;;;42.53;24.98;;;;;;;;;;5005453;28;99394;-70
2023/09/12 04:47:49;;;;;;;40.35;25.08;;;;;;;;;;5007688;28;99390;-70
2023/09/12 04:50:16;;;;;;;53.08;29.10;;;;;;;;;;5008151;28;101181;-70
2023/09/12 04:52:42;;;;;;;55.42;31.38;;;;;;;;;;5008141;28;98863;-71
2023/09/12 04:55:09;;;;;;;52.58;29.15;;;;;;;;;;5008009;28;98308;-72
2023/09/12 04:57:35;;;;;;;64.25;31.08;;;;;;;;;;5012630;28;99065;-70
2023/09/12 05:00:05;;;;;;;64.00;33.38;;;;;;;;;;5008640;28;99662;-70
2023/09/12 05:02:31;;;;;;;59.47;31.33;;;;;;;;;;5011114;28;98289;-71
2023/09/12 05:04:58;;;;;;;68.90;33.33;;;;;;;;;;5009121;28;99125;-71
2023/09/12 05:07:25;;;;;;;56.90;30.75;;;;;;;;;;5006471;28;98530;-70
2023/09/12 05:09:51;;;;;;;58.28;31.02;;;;;;;;;;5007975;28;100499;-70
2023/09/12 05:12:18;;;;;;;67.25;32.92;;;;;;;;;;5006072;28;100052;-70
2023/09/12 05:14:45;;;;;;;51.97;30.00;;;;;;;;;;5007759;28;98376;-69
2023/09/12 05:17:11;;;;;;;63.70;33.05;;;;;;;;;;5007139;28;101031;-69
2023/09/12 05:19:38;;;;;;;63.75;32.45;;;;;;;;;;5008331;28;99783;-69
2023/09/12 05:22:04;;;;;;;56.67;30.70;;;;;;;;;;5007664;28;98381;-70
2023/09/12 05:24:30;;;;;;;66.43;32.92;;;;;;;;;;5010227;28;100198;-69
2023/09/12 05:26:57;;;;;;;70.90;34.75;;;;;;;;;;5008459;28;98235;-68
2023/09/12 05:29:23;;;;;;;75.18;37.13;;;;;;;;;;5007236;28;99629;-70
2023/09/12 05:31:50;;;;;;;77.13;38.03;;;;;;;;;;5006871;28;102361;-70
2023/09/12 05:34:17;;;;;;;73.65;36.75;;;;;;;;;;5005653;28;98602;-71
2023/09/12 05:36:43;;;;;;;74.25;35.55;;;;;;;;;;5007403;28;99569;-70
2023/09/12 05:39:10;;;;;;;73.72;34.92;;;;;;;;;;5008555;28;98801;-70
2023/09/12 05:41:37;;;;;;;68.78;33.60;;;;;;;;;;5005841;28;98316;-70
2023/09/12 05:44:03;;;;;;;62.15;34.20;;;;;;;;;;5007315;28;100541;-70
2023/09/12 05:46:30;;;;;;;75.85;34.92;;;;;;;;;;5011648;28;98623;-69
2023/09/12 05:48:56;;;;;;;72.40;34.85;;;;;;;;;;5009101;28;99710;-70
2023/09/12 05:51:23;;;;;;;72.43;35.78;;;;;;;;;;5007361;28;100124;-70
2023/09/12 05:53:49;;;;;;;69.15;33.13;;;;;;;;;;5008637;28;98244;-70
2023/09/12 05:56:16;;;;;;;77.88;38.22;;;;;;;;;;5008242;28;100894;-69
2023/09/12 05:58:42;;;;;;;78.85;38.78;;;;;;;;;;5008271;28;99255;-71
2023/09/12 06:01:10;;;;;;;75.25;36.78;;;;;;;;;;5007962;28;98589;-70
2023/09/12 06:03:37;;;;;;;75.75;36.95;;;;;;;;;;5007097;28;100908;-70
2023/09/12 06:06:04;;;;;;;68.88;36.00;;;;;;;;;;5012281;28;99002;-70
2023/09/12 06:08:30;;;;;;;70.57;37.42;;;;;;;;;;5008032;28;98486;-70
2023/09/12 06:10:57;;;;;;;67.28;35.47;;;;;;;;;;5008569;28;98766;-70
2023/09/12 06:13:24;;;;;;;68.35;36.03;;;;;;;;;;5008051;28;98310;-70
2023/09/12 06:15:51;;;;;;;65.93;36.08;;;;;;;;;;5008330;28;99086;-70
2023/09/12 06:18:18;;;;;;;62.20;34.15;;;;;;;;;;5007512;28;100299;-69
2023/09/12 06:20:44;;;;;;;57.63;34.78;;;;;;;;;;5008643;28;98245;-70
2023/09/12 06:23:11;;;;;;;70.53;35.47;;;;;;;;;;5008003;28;99031;-72
2023/09/12 06:25:37;;;;;;;71.22;35.88;;;;;;;;;;5008275;28;98919;-70
2023/09/12 06:28:05;;;;;;;64.18;35.35;;;;;;;;;;5011961;28;98120;-70
2023/09/12 06:30:32;;;;;;;63.58;34.28;;;;;;;;;;5007378;28;99189;-70
2023/09/12 06:32:58;;;;;;;67.53;34.03;;;;;;;;;;5008642;28;98231;-70
2023/09/12 06:35:25;;;;;;;64.18;33.65;;;;;;;;;;5008228;28;98895;-70
2023/09/12 06:37:51;;;;;;;61.03;33.40;;;;;;;;;;5007466;28;100147;-70
2023/09/12 06:40:17;;;;;;;60.63;32.30;;;;;;;;;;5008203;28;98302;-71
2023/09/12 06:42:44;;;;;;;60.63;32.60;;;;;;;;;;5008145;28;98626;-70
2023/09/12 06:45:11;;;;;;;64.93;33.47;;;;;;;;;;5007958;28;100036;-70
2023/09/12 06:47:37;;;;;;;61.10;34.53;;;;;;;;;;5007305;28;98247;-70
2023/09/12 06:50:04;;;;;;;59.65;32.80;;;;;;;;;;5012426;28;98603;-70
2023/09/12 06:52:34;;;;;;;62.63;33.10;;;;;;;;;;5007510;28;98449;-71
2023/09/12 06:55:01;;;;;;;61.00;35.03;;;;;;;;;;5008959;28;99399;-70
2023/09/12 06:57:28;;;;;;;62.60;33.47;;;;;;;;;;5008566;28;99876;-70
2023/09/12 06:59:55;;;;;;;66.82;35.22;;;;;;;;;;5007899;28;98377;-69
2023/09/12 07:02:21;;;;;;;63.05;33.00;;;;;;;;;;5007865;28;99649;-70
2023/09/12 07:04:48;;;;;;;63.10;33.55;;;;;;;;;;5007377;28;98982;-69
2023/09/12 07:07:14;;;;;;;58.95;31.77;;;;;;;;;;5006722;28;98390;-69
2023/09/12 07:09:41;;;;;;;67.05;32.85;;;;;;;;;;5008118;28;98718;-69
2023/09/12 07:12:07;;;;;;;63.25;34.20;;;;;;;;;;5009871;28;99941;-69
2023/09/12 07:14:34;;;;;;;61.70;31.80;;;;;;;;;;5006783;28;98507;-69
2023/09/12 07:17:00;;;;;;;56.53;30.98;;;;;;;;;;5007803;28;99439;-70
2023/09/12 07:19:27;;;;;;;51.42;30.60;;;;;;;;;;5007128;28;98287;-69
2023/09/12 07:21:53;;;;;;;49.83;29.83;;;;;;;;;;5007727;28;98796;-69
2023/09/12 07:24:20;;;;;;;51.72;30.30;;;;;;;;;;5007524;28;98871;-70
2023/09/12 07:26:47;;;;;;;53.10;29.73;;;;;;;;;;5007202;28;98268;-70
2023/09/12 07:29:13;;;;;;;51.00;29.65;;;;;;;;;;5007445;28;98641;-70
2023/09/12 07:31:40;;;;;;;50.20;28.23;;;;;;;;;;5006266;28;99029;-70
2023/09/12 07:34:08;;;;;;;54.45;29.30;;;;;;;;;;5010287;28;98271;-69
2023/09/12 07:36:34;;;;;;;48.65;28.02;;;;;;;;;;5006979;28;99930;-71
2023/09/12 07:39:01;;;;;;;47.47;27.55;;;;;;;;;;5007433;28;98440;-69
2023/09/12 07:41:28;;;;;;;46.22;27.15;;;;;;;;;;5006691;28;98668;-69
2023/09/12 07:43:55;;;;;;;51.33;28.50;;;;;;;;;;5007219;28;99094;-70
2023/09/12 07:46:21;;;;;;;51.10;29.15;;;;;;;;;;5006783;28;98255;-69
2023/09/12 07:48:48;;;;;;;45.63;26.65;;;;;;;;;;5007050;28;99933;-70
2023/09/12 07:51:17;;;;;;;52.10;27.65;;;;;;;;;;5006737;28;100439;-70
2023/09/12 07:53:43;;;;;;;46.92;28.13;;;;;;;;;;5012134;28;98224;-70
2023/09/12 07:56:11;;;;;;;39.88;26.67;;;;;;;;;;5008045;28;100126;-69
2023/09/12 07:58:37;;;;;;;40.65;24.77;;;;;;;;;;5007728;28;98245;-70
2023/09/12 08:01:07;;;;;;;40.90;24.75;;;;;;;;;;5006737;28;98493;-70
2023/09/12 08:03:35;;;;;;;43.47;23.70;;;;;;;;;;5006429;28;100330;-70
2023/09/12 08:06:02;;;;;;;38.47;22.58;;;;;;;;;;5007070;28;98103;-69
2023/09/12 08:08:30;;;;;;;37.60;20.40;;;;;;;;;;5006262;28;99747;-70
2023/09/12 08:10:57;;;;;;;32.40;21.15;;;;;;;;;;5006835;28;99040;-70
2023/09/12 08:13:29;;;;;;;28.80;20.27;;;;;;;;;;5006757;28;98449;-70
2023/09/12 08:15:56;;;;;;;34.33;21.63;;;;;;;;;;5009226;28;99564;-70
2023/09/12 08:18:26;;;;;;;35.72;21.52;;;;;;;;;;5006907;28;98279;-69
2023/09/12 08:20:52;;;;;;;35.50;22.65;;;;;;;;;;5006174;28;98594;-69
2023/09/12 08:23:21;;;;;;;36.53;21.40;;;;;;;;;;5005722;28;100132;-71
2023/09/12 08:25:48;;;;;;;35.65;22.38;;;;;;;;;;5006843;28;98812;-69
2023/09/12 08:28:15;;;;;;;40.95;21.40;;;;;;;;;;5006142;28;98572;-68
2023/09/12 08:30:43;;;;;;;38.28;21.00;;;;;;;;;;5006043;28;98922;-68
2023/09/12 08:33:09;;;;;;;29.70;21.27;;;;;;;;;;5007015;28;98679;-69
2023/09/12 08:35:36;;;;;;;33.17;22.70;;;;;;;;;;5006493;28;99518;-70
2023/09/12 08:38:02;;;;;;;36.85;21.08;;;;;;;;;;5009227;28;99589;-70
2023/09/12 08:40:30;;;;;;;32.65;20.02;;;;;;;;;;5006389;28;99406;-68
2023/09/12 08:42:57;;;;;;;34.45;21.52;;;;;;;;;;5006169;28;98914;-69
2023/09/12 08:45:24;;;;;;;34.95;21.15;;;;;;;;;;5005237;28;98223;-69
2023/09/12 08:47:51;;;;;;;33.25;21.00;;;;;;;;;;5007457;28;98432;-69
2023/09/12 08:50:20;;;;;;;33.85;21.80;;;;;;;;;;5005502;28;100175;-69
2023/09/12 08:52:47;;;;;;;30.88;20.40;;;;;;;;;;5006989;28;98724;-72
2023/09/12 08:55:34;;;;;;;35.67;19.58;;;;;;;;;;5008247;28;99314;-70
2023/09/12 08:58:02;;;;;;;25.08;18.55;;;;;;;;;;5007532;28;99208;-70
2023/09/12 09:00:32;;;;;;;33.90;19.30;;;;;;;;;;5010371;28;98296;-71
2023/09/12 09:02:58;;;;;;;32.05;18.75;;;;;;;;;;5006625;28;99971;-71
2023/09/12 09:05:26;;;;;;;32.53;20.38;;;;;;;;;;5005706;28;98438;-70
2023/09/12 09:07:54;;;;;;;33.08;20.67;;;;;;;;;;5006222;28;99409;-70
2023/09/12 09:10:23;;;;;;;30.70;20.50;;;;;;;;;;5005588;28;100081;-70
2023/09/12 09:13:03;;;;;;;30.38;19.98;;;;;;;;;;5009223;28;98246;-70
2023/09/12 09:15:29;;;;;;;30.40;19.05;;;;;;;;;;5009430;28;100100;-70
2023/09/12 09:17:57;;;;;;;31.95;20.00;;;;;;;;;;5009576;28;99019;-70
2023/09/12 09:20:26;;;;;;;33.55;21.15;;;;;;;;;;5008680;28;98208;-71
2023/09/12 09:22:59;;;;;;;34.15;19.58;;;;;;;;;;5012634;28;98634;-70
2023/09/12 09:25:26;;;;;;;33.45;20.45;;;;;;;;;;5008821;28;98532;-70
2023/09/12 09:27:53;;;;;;;32.25;20.42;;;;;;;;;;5009822;28;99528;-70
2023/09/12 09:30:38;;;;;;;34.22;21.20;;;;;;;;;;5008703;28;99301;-71
2023/09/12 09:33:05;;;;;;;29.33;21.17;;;;;;;;;;5008195;28;98280;-70
2023/09/12 09:35:31;;;;;;;31.73;22.05;;;;;;;;;;5008233;28;98650;-70
2023/09/12 09:37:58;;;;;;;32.20;22.75;;;;;;;;;;5009393;28;99987;-70
2023/09/12 09:40:24;;;;;;;37.90;23.05;;;;;;;;;;5008086;28;98251;-69
2023/09/12 09:42:56;;;;;;;37.25;21.58;;;;;;;;;;5009589;28;98762;-71
2023/09/12 09:45:22;;;;;;;34.30;22.23;;;;;;;;;;5011720;28;100211;-70
2023/09/12 09:47:50;;;;;;;31.90;23.73;;;;;;;;;;5008342;28;98737;-70
2023/09/12 09:50:16;;;;;;;35.15;22.27;;;;;;;;;;5009051;28;99380;-70
2023/09/12 09:52:44;;;;;;;32.40;22.60;;;;;;;;;;5010165;28;98239;-70
2023/09/12 09:55:14;;;;;;;32.25;22.13;;;;;;;;;;5009122;28;99632;-70
2023/09/12 09:57:43;;;;;;;34.95;22.55;;;;;;;;;;5008820;28;100158;-70
2023/09/12 10:00:14;;;;;;;32.33;22.50;;;;;;;;;;5007712;28;98304;-71
2023/09/12 10:02:42;;;;;;;32.63;21.40;;;;;;;;;;5007353;28;99738;-70
2023/09/12 10:05:09;;;;;;;29.85;22.98;;;;;;;;;;5011308;28;98939;-70
2023/09/12 10:07:37;;;;;;;34.90;22.67;;;;;;;;;;5007739;28;99644;-70
2023/09/12 10:10:04;;;;;;;32.72;20.63;;;;;;;;;;5008212;28;99789;-70
2023/09/12 10:12:31;;;;;;;27.27;19.42;;;;;;;;;;5007810;28;98326;-70
2023/09/12 10:14:59;;;;;;;27.23;20.17;;;;;;;;;;5008526;27;98867;-70
2023/09/12 10:17:31;;;;;;;29.50;20.02;;;;;;;;;;5008199;28;98880;-71
2023/09/12 10:19:58;;;;;;;;;;;;;;;;;;5008533;28;98225;-69
2023/09/12 10:22:27;;;;;;;28.73;18.60;;;;;;;;;;5006434;28;129110;-71
2023/09/12 10:24:56;;;;;;;27.23;19.20;;;;;;;;;;5007245;28;100062;-71
2023/09/12 10:27:24;;;;;;;31.25;19.55;;;;;;;;;;5011007;28;98606;-69
2023/09/12 10:29:53;;;;;;;26.92;18.10;;;;;;;;;;5007234;28;100211;-69
2023/09/12 10:32:20;;;;;;;25.73;18.35;;;;;;;;;;5007926;28;98235;-71
2023/09/12 10:34:48;;;;;;;23.60;17.42;;;;;;;;;;5008129;28;99387;-70
2023/09/12 10:37:19;;;;;;;29.35;17.73;;;;;;;;;;5006325;28;99056;-69
2023/09/12 10:39:47;;;;;;;22.20;15.98;;;;;;;;;;5008001;28;98070;-70
2023/09/12 10:42:15;;;;;;;24.13;16.60;;;;;;;;;;5007550;28;99506;-70
2023/09/12 10:44:42;;;;;;;26.73;18.40;;;;;;;;;;5007213;28;98850;-70
2023/09/12 10:47:09;;;;;;;26.10;16.55;;;;;;;;;;5007543;28;98283;-70
2023/09/12 10:49:37;;;;;;;28.33;18.83;;;;;;;;;;5010044;28;99564;-70
2023/09/12 10:52:03;;;;;;;22.85;16.52;;;;;;;;;;5006402;28;98570;-71
2023/09/12 10:54:40;;;;;;;34.55;19.02;;;;;;;;;;5009476;28;98575;-70
2023/09/12 10:57:08;;;;;;;27.30;18.13;;;;;;;;;;5006800;28;98998;-70
2023/09/12 10:59:37;;;;;;;30.67;16.98;;;;;;;;;;5007346;28;98204;-69
2023/09/12 11:02:23;;;;;;;25.95;15.50;;;;;;;;;;5007454;28;99720;-70
2023/09/12 11:04:49;;;;;;;29.83;16.67;;;;;;;;;;5001403;28;98932;-70
2023/09/12 11:07:45;;;;;;;22.58;15.95;;;;;;;;;;5007644;28;98774;-70
2023/09/12 11:10:20;;;;;;;25.63;15.90;;;;;;;;;;4991220;28;98761;-69
2023/09/12 11:12:48;;;;;;;23.38;14.90;;;;;;;;;;5009130;28;100153;-69
2023/09/12 11:15:15;;;;;;;18.02;13.70;;;;;;;;;;5006191;28;98955;-70
2023/09/12 11:17:44;;;;;;;19.10;14.07;;;;;;;;;;5007056;28;98674;-71
2023/09/12 11:20:11;;;;;;;15.52;12.38;;;;;;;;;;5006723;28;98329;-69
2023/09/12 11:22:41;;;;;;;17.55;12.90;;;;;;;;;;5007167;28;98741;-70
2023/09/12 11:25:18;;;;;;;21.42;13.15;;;;;;;;;;5006497;28;99188;-70
2023/09/12 11:27:51;;;;;;;15.23;11.82;;;;;;;;;;5007128;28;98664;-70
2023/09/12 11:30:18;;;;;;;16.77;12.35;;;;;;;;;;5006859;28;99589;-70
2023/09/12 11:32:47;;;;;;;22.20;13.10;;;;;;;;;;5006634;28;98921;-71
2023/09/12 11:35:14;;;;;;;18.17;12.50;;;;;;;;;;5010022;28;98232;-71
2023/09/12 11:37:51;;;;;;;18.55;11.93;;;;;;;;;;5006510;28;100015;-69
2023/09/12 11:40:22;;;;;;;14.63;11.00;;;;;;;;;;5005030;28;98514;-69
2023/09/12 11:42:49;;;;;;;21.17;12.50;;;;;;;;;;5006880;28;98690;-70
2023/09/12 11:45:20;;;;;;;17.65;11.77;;;;;;;;;;5006273;28;99216;-70
2023/09/12 11:47:46;;;;;;;11.20;10.10;;;;;;;;;;5006041;28;98315;-71
2023/09/12 11:50:33;;;;;;;16.35;12.13;;;;;;;;;;5006541;28;99397;-71
2023/09/12 11:53:03;;;;;;;15.13;11.60;;;;;;;;;;5003632;28;98981;-69
2023/09/12 11:55:30;;;;;;;12.70;10.82;;;;;;;;;;5006282;28;98882;-69
2023/09/12 11:57:57;;;;;;;12.30;10.90;;;;;;;;;;5010208;28;99260;-69
2023/09/12 12:00:26;;;;;;;15.73;11.27;;;;;;;;;;5005751;28;98242;-69
2023/09/12 12:02:53;;;;;;;14.30;10.48;;;;;;;;;;5006147;28;99422;-69
2023/09/12 12:05:20;;;;;;;16.33;12.18;;;;;;;;;;5005224;28;99059;-69
2023/09/12 12:07:48;;;;;;;16.80;11.63;;;;;;;;;;5005585;28;99585;-69
2023/09/12 12:10:16;;;;;;;16.50;10.68;;;;;;;;;;5006361;28;99458;-70
2023/09/12 12:12:44;;;;;;;14.95;10.80;;;;;;;;;;5005893;28;98988;-70
2023/09/12 12:15:13;;;;;;;12.63;11.32;;;;;;;;;;5006055;28;98307;-71
2023/09/12 12:17:40;;;;;;;12.25;9.88;;;;;;;;;;5009093;28;99560;-69
2023/09/12 12:20:10;;;;;;;13.00;10.55;;;;;;;;;;5000822;28;98268;-68
2023/09/12 12:22:38;;;;;;;13.02;11.18;;;;;;;;;;5005776;28;98911;-69
2023/09/12 12:25:11;;;;;;;13.90;10.57;;;;;;;;;;5006091;28;98977;-69
2023/09/12 12:27:38;;;;;;;13.02;10.05;;;;;;;;;;5006284;28;98342;-70
2023/09/12 12:30:09;;;;;;;12.98;8.68;;;;;;;;;;5004134;28;99213;-70
2023/09/12 12:32:39;;;;;;;14.13;9.25;;;;;;;;;;5005921;28;100350;-70
2023/09/12 12:35:07;;;;;;;14.90;10.03;;;;;;;;;;5006025;28;98342;-71
2023/09/12 12:37:55;;;;;;;20.08;10.85;;;;;;;;;;5005355;28;98428;-70
2023/09/12 12:40:30;;;;;;;15.70;9.60;;;;;;;;;;5008845;28;98860;-70
2023/09/12 12:43:19;;;;;;;12.95;9.07;;;;;;;;;;5005842;28;98602;-71
2023/09/12 12:45:53;;;;;;;11.23;8.35;;;;;;;;;;5007234;28;99684;-70
2023/09/12 12:48:29;;;;;;;14.45;9.05;;;;;;;;;;5008770;28;98413;-70
2023/09/12 12:50:55;;;;;;;10.93;8.48;;;;;;;;;;5008722;28;99490;-70
2023/09/12 12:53:41;;;;;;;11.95;7.93;;;;;;;;;;5009111;28;98947;-69
2023/09/12 12:56:20;;;;;;;7.13;6.43;;;;;;;;;;5002881;28;98322;-71
2023/09/12 12:58:47;;;;;;;10.55;6.85;;;;;;;;;;5010226;28;98798;-70
2023/09/12 13:01:14;;;;;;;7.60;6.25;;;;;;;;;;5009101;28;99105;-70
2023/09/12 13:03:41;;;;;;;7.85;7.05;;;;;;;;;;5011989;28;99376;-70
2023/09/12 13:06:13;;;;;;;6.20;5.40;;;;;;;;;;5008823;28;98169;-70
2023/09/12 13:08:41;;;;;;;9.87;6.23;;;;;;;;;;5008885;28;98244;-70
2023/09/12 13:11:08;;;;;;;6.18;5.45;;;;;;;;;;5008259;28;98582;-70
2023/09/12 13:13:36;;;;;;;5.88;5.28;;;;;;;;;;5008938;28;100051;-70
2023/09/12 13:16:04;;;;;;;9.90;6.03;;;;;;;;;;5009018;28;98213;-69
2023/09/12 13:18:32;;;;;;;10.77;6.03;;;;;;;;;;5008367;28;99388;-68
2023/09/12 13:20:58;;;;;;;8.18;6.72;;;;;;;;;;5007712;28;99061;-70
2023/09/12 13:23:25;;;;;;;17.48;10.85;;;;;;;;;;5008729;28;98282;-70
2023/09/12 13:25:51;;;;;;;17.75;11.25;;;;;;;;;;5011121;28;98670;-71
2023/09/12 13:28:18;;;;;;;15.93;10.98;;;;;;;;;;5008449;28;98624;-69
2023/09/12 13:30:44;;;;;;;18.85;13.65;;;;;;;;;;5009072;28;99746;-69
2023/09/12 13:33:11;;;;;;;7.22;6.53;;;;;;;;;;5007912;28;99118;-69
2023/09/12 13:35:38;;;;;;;6.78;5.28;;;;;;;;;;5009013;28;98295;-69
2023/09/12 13:38:09;;;;;;;9.27;5.93;;;;;;;;;;5008882;28;99494;-69
2023/09/12 13:40:36;;;;;;;8.27;5.27;;;;;;;;;;5000592;28;100222;-69
2023/09/12 13:43:03;;;;;;;7.90;4.75;;;;;;;;;;5008995;28;98339;-69
2023/09/12 13:45:29;;;;;;;4.97;4.43;;;;;;;;;;5007700;28;100268;-69
2023/09/12 13:47:57;;;;;;;9.13;5.43;;;;;;;;;;5011510;28;98983;-69
2023/09/12 13:50:23;;;;;;;7.13;5.50;;;;;;;;;;5008488;28;99610;-69
2023/09/12 13:52:50;;;;;;;11.48;6.15;;;;;;;;;;5007936;28;99971;-69
2023/09/12 13:55:16;;;;;;;9.05;5.80;;;;;;;;;;5009057;28;98353;-70
2023/09/12 13:57:58;;;;;;;6.53;6.00;;;;;;;;;;5009834;28;99725;-70
2023/09/12 14:00:25;;;;;;;11.38;6.97;;;;;;;;;;5007275;28;99771;-70
2023/09/12 14:03:01;;;;;;;8.40;6.50;;;;;;;;;;5008908;28;98435;-70
2023/09/12 14:05:28;;;;;;;10.48;7.03;;;;;;;;;;5007273;28;99363;-70
2023/09/12 14:07:55;;;;;;;8.38;6.75;;;;;;;;;;5007389;28;100236;-70
2023/09/12 14:10:22;;;;;;;9.30;6.82;;;;;;;;;;5010295;28;98202;-69
2023/09/12 14:13:02;;;;;;;10.77;7.47;;;;;;;;;;5007555;28;99969;-69
2023/09/12 14:15:46;;;;;;;12.88;8.32;;;;;;;;;;5000633;28;98434;-70
2023/09/12 14:18:13;;;;;;;13.80;8.32;;;;;;;;;;5007050;28;98885;-70
2023/09/12 14:20:39;;;;;;;13.73;9.40;;;;;;;;;;5007970;28;98992;-69
2023/09/12 14:23:06;;;;;;;16.42;10.43;;;;;;;;;;5007789;28;98781;-69